createdAt,value
2017-07-29T00:00:23.197Z,16.27
2017-07-29T00:01:23.223Z,16.24
2017-07-29T00:02:23.261Z,16.27
2017-07-29T00:03:23.277Z,16.09
2017-07-29T00:04:23.283Z,16.24
2017-07-29T00:05:23.320Z,16.24
2017-07-29T00:06:37.952Z,16.3
2017-07-29T00:07:23.392Z,16.28
2017-07-29T00:08:23.401Z,16.31
2017-07-29T00:09:23.424Z,16.28
2017-07-29T00:10:23.445Z,16.25
2017-07-29T00:11:23.446Z,16.24
2017-07-29T00:12:23.483Z,16.2
2017-07-29T00:13:23.203Z,16.28
2017-07-29T00:14:23.230Z,16.24
2017-07-29T00:15:23.566Z,16.2
2017-07-29T00:16:23.588Z,16.21
2017-07-29T00:17:23.605Z,16.17
2017-07-29T00:18:23.619Z,16.09
2017-07-29T00:19:23.670Z,16.11
2017-07-29T00:20:23.673Z,16.08
2017-07-29T00:21:23.709Z,16.08
2017-07-29T00:22:38.325Z,16.05
2017-07-29T00:23:23.757Z,16.09
2017-07-29T00:24:23.756Z,16.07
2017-07-29T00:25:23.804Z,16.07
2017-07-29T00:26:38.110Z,16.01
2017-07-29T00:27:23.855Z,16.12
2017-07-29T00:28:38.464Z,16.09
2017-07-29T00:29:23.903Z,16.15
2017-07-29T00:30:23.924Z,16.2
2017-07-29T00:31:23.944Z,16.28
2017-07-29T00:32:23.963Z,16.23
2017-07-29T00:33:24.004Z,16.3
2017-07-29T00:34:24.003Z,16.35
2017-07-29T00:35:24.038Z,16.31
2017-07-29T00:36:24.060Z,16.46
2017-07-29T00:37:38.693Z,16.39
2017-07-29T00:38:24.115Z,16.39
2017-07-29T00:39:24.142Z,16.3
2017-07-29T00:40:24.167Z,16.31
2017-07-29T00:41:38.787Z,16.43
2017-07-29T00:42:24.191Z,16.45
2017-07-29T00:43:23.921Z,16.49
2017-07-29T00:44:24.267Z,16.34
2017-07-29T00:45:24.285Z,16.48
2017-07-29T00:46:24.294Z,16.41
2017-07-29T00:47:24.330Z,16.33
2017-07-29T00:48:24.341Z,16.42
2017-07-29T00:49:24.379Z,16.35
2017-07-29T00:50:24.403Z,16.35
2017-07-29T00:51:24.426Z,16.31
2017-07-29T00:52:24.439Z,16.35
2017-07-29T00:55:24.526Z,16.33
2017-07-29T00:56:24.536Z,16.38
2017-07-29T00:57:24.577Z,16.28
2017-07-29T00:58:24.595Z,16.42
2017-07-29T00:59:24.610Z,16.45
2017-07-29T01:00:24.632Z,16.34
2017-07-29T01:01:24.665Z,16.35
2017-07-29T01:02:24.687Z,16.42
2017-07-29T01:03:39.312Z,16.46
2017-07-29T01:04:24.733Z,16.35
2017-07-29T01:05:24.753Z,16.45
2017-07-29T01:06:24.797Z,16.31
2017-07-29T01:07:24.806Z,16.35
2017-07-29T01:08:24.839Z,16.33
2017-07-29T01:09:39.455Z,16.24
2017-07-29T01:10:24.874Z,16.31
2017-07-29T01:11:24.918Z,16.27
2017-07-29T01:12:39.532Z,16.28
2017-07-29T01:13:39.542Z,16.33
2017-07-29T01:14:24.984Z,16.25
2017-07-29T01:15:25.031Z,16.31
2017-07-29T01:16:25.034Z,16.28
2017-07-29T01:17:25.034Z,16.41
2017-07-29T01:18:25.077Z,16.41
2017-07-29T01:19:25.096Z,16.27
2017-07-29T01:21:25.161Z,16.42
2017-07-29T01:22:24.852Z,16.35
2017-07-29T01:23:25.199Z,16.46
2017-07-29T01:24:25.210Z,16.42
2017-07-29T01:25:39.846Z,16.39
2017-07-29T01:26:25.270Z,16.39
2017-07-29T01:27:25.284Z,16.38
2017-07-29T01:28:25.300Z,16.39
2017-07-29T01:29:25.322Z,16.27
2017-07-29T01:30:25.366Z,16.31
2017-07-29T01:31:39.985Z,16.49
2017-07-29T01:32:25.416Z,16.41
2017-07-29T01:33:25.425Z,16.3
2017-07-29T01:34:25.459Z,16.35
2017-07-29T01:36:25.507Z,16.28
2017-07-29T01:37:25.524Z,16.42
2017-07-29T01:38:25.256Z,16.39
2017-07-29T01:39:25.567Z,16.41
2017-07-29T01:40:25.600Z,16.42
2017-07-29T01:41:40.210Z,16.31
2017-07-29T01:43:25.367Z,16.46
2017-07-29T01:44:25.381Z,16.49
2017-07-29T01:45:25.732Z,16.48
2017-07-29T01:46:25.736Z,16.33
2017-07-29T01:47:25.778Z,16.45
2017-07-29T01:48:25.799Z,16.33
2017-07-29T01:49:25.821Z,16.35
2017-07-29T01:50:25.837Z,16.45
2017-07-29T01:51:25.867Z,16.42
2017-07-29T01:52:25.894Z,16.45
2017-07-29T01:53:25.911Z,16.48
2017-07-29T01:54:25.927Z,16.48
2017-07-29T01:55:25.957Z,16.46
2017-07-29T01:56:25.981Z,16.53
2017-07-29T01:57:40.604Z,16.52
2017-07-29T01:58:26.027Z,16.56
2017-07-29T01:59:26.067Z,16.57
2017-07-29T02:00:26.075Z,16.38
2017-07-29T02:01:26.106Z,16.38
2017-07-29T02:02:26.118Z,16.45
2017-07-29T02:03:26.140Z,16.42
2017-07-29T02:05:26.208Z,16.39
2017-07-29T02:06:26.234Z,16.41
2017-07-29T02:07:25.935Z,16.45
2017-07-29T02:08:26.265Z,16.38
2017-07-29T02:09:25.662Z,16.43
2017-07-29T02:10:26.303Z,16.3
2017-07-29T02:11:26.338Z,16.45
2017-07-29T02:12:40.956Z,16.41
2017-07-29T02:13:26.398Z,16.38
2017-07-29T02:14:26.727Z,16.33
2017-07-29T02:15:26.428Z,16.45
2017-07-29T02:16:26.473Z,16.43
2017-07-29T02:17:25.870Z,16.41
2017-07-29T02:19:26.520Z,16.33
2017-07-29T02:20:26.540Z,16.35
2017-07-29T02:21:26.590Z,16.43
2017-07-29T02:22:26.635Z,16.34
2017-07-29T02:23:26.640Z,16.38
2017-07-29T02:24:26.646Z,16.42
2017-07-29T02:25:26.680Z,16.28
2017-07-29T02:26:26.692Z,16.46
2017-07-29T02:27:26.719Z,16.41
2017-07-29T02:28:26.424Z,16.31
2017-07-29T02:29:26.475Z,16.31
2017-07-29T02:30:26.808Z,16.38
2017-07-29T02:31:26.824Z,16.45
2017-07-29T02:32:26.843Z,16.45
2017-07-29T02:33:26.555Z,16.45
2017-07-29T02:34:26.902Z,16.42
2017-07-29T02:35:26.918Z,16.41
2017-07-29T02:37:26.964Z,16.34
2017-07-29T02:38:41.588Z,16.33
2017-07-29T02:39:27.003Z,16.43
2017-07-29T02:40:27.050Z,16.35
2017-07-29T02:41:27.053Z,16.31
2017-07-29T02:42:27.095Z,16.34
2017-07-29T02:43:27.098Z,16.41
2017-07-29T02:44:41.738Z,16.3
2017-07-29T02:45:27.158Z,16.33
2017-07-29T02:46:27.236Z,16.33
2017-07-29T02:47:26.898Z,16.3
2017-07-29T02:48:27.220Z,16.28
2017-07-29T02:49:27.238Z,16.41
2017-07-29T02:50:27.264Z,16.35
2017-07-29T02:51:27.313Z,16.46
2017-07-29T02:52:27.317Z,16.38
2017-07-29T02:53:27.352Z,16.27
2017-07-29T02:55:27.401Z,16.43
2017-07-29T02:56:27.431Z,16.3
2017-07-29T02:57:27.439Z,16.38
2017-07-29T02:58:27.465Z,16.49
2017-07-29T02:59:27.484Z,16.41
2017-07-29T03:00:42.111Z,16.39
2017-07-29T03:01:27.540Z,16.38
2017-07-29T03:02:42.170Z,16.38
2017-07-29T03:03:27.590Z,16.46
2017-07-29T03:04:27.608Z,16.39
2017-07-29T03:05:27.635Z,16.43
2017-07-29T03:06:27.653Z,16.41
2017-07-29T03:07:27.725Z,16.39
2017-07-29T03:08:27.707Z,16.46
2017-07-29T03:09:27.724Z,16.42
2017-07-29T03:10:42.353Z,16.38
2017-07-29T03:12:27.805Z,16.31
2017-07-29T03:13:42.421Z,16.31
2017-07-29T03:14:27.850Z,16.39
2017-07-29T03:15:27.877Z,16.33
2017-07-29T03:16:42.491Z,16.31
2017-07-29T03:17:27.927Z,16.35
2017-07-29T03:18:27.949Z,16.28
2017-07-29T03:19:27.970Z,16.35
2017-07-29T03:20:27.976Z,16.33
2017-07-29T03:21:28.013Z,16.27
2017-07-29T03:22:28.035Z,16.33
2017-07-29T03:23:28.060Z,16.3
2017-07-29T03:24:28.098Z,16.34
2017-07-29T03:25:28.099Z,16.33
2017-07-29T03:26:28.148Z,16.34
2017-07-29T03:27:28.562Z,16.33
2017-07-29T03:28:28.189Z,16.34
2017-07-29T03:29:28.200Z,16.25
2017-07-29T03:30:28.245Z,16.28
2017-07-29T03:31:28.256Z,16.25
2017-07-29T03:32:42.881Z,16.35
2017-07-29T03:33:28.296Z,16.3
2017-07-29T03:34:28.333Z,16.27
2017-07-29T03:35:28.346Z,16.28
2017-07-29T03:36:28.376Z,16.27
2017-07-29T03:37:28.390Z,16.17
2017-07-29T03:38:28.425Z,16.25
2017-07-29T03:39:28.437Z,16.33
2017-07-29T03:40:28.479Z,16.23
2017-07-29T03:41:28.505Z,16.2
2017-07-29T03:42:43.116Z,16.24
2017-07-29T03:43:28.232Z,16.28
2017-07-29T03:44:28.565Z,16.21
2017-07-29T03:45:28.597Z,16.31
2017-07-29T03:46:28.609Z,16.34
2017-07-29T03:47:43.238Z,16.33
2017-07-29T03:48:28.664Z,16.33
2017-07-29T03:50:28.711Z,16.3
2017-07-29T03:52:28.767Z,16.38
2017-07-29T03:53:28.783Z,16.35
2017-07-29T03:55:28.834Z,16.45
2017-07-29T03:56:28.854Z,16.49
2017-07-29T03:57:28.878Z,16.52
2017-07-29T03:58:28.884Z,16.58
2017-07-29T03:59:28.933Z,16.56
2017-07-29T04:00:28.948Z,16.61
2017-07-29T04:01:28.985Z,16.66
2017-07-29T04:02:28.989Z,16.57
2017-07-29T04:03:29.017Z,16.66
2017-07-29T04:04:29.054Z,16.61
2017-07-29T04:06:29.089Z,16.63
2017-07-29T04:07:29.118Z,16.6
2017-07-29T04:08:29.135Z,16.68
2017-07-29T04:09:29.177Z,16.64
2017-07-29T04:10:29.188Z,16.68
2017-07-29T04:11:29.220Z,16.79
2017-07-29T04:12:29.242Z,16.75
2017-07-29T04:14:29.293Z,16.85
2017-07-29T04:15:29.299Z,16.83
2017-07-29T04:16:29.024Z,16.86
2017-07-29T04:17:29.344Z,16.86
2017-07-29T04:18:29.074Z,16.88
2017-07-29T04:19:44.011Z,16.85
2017-07-29T04:20:29.432Z,16.81
2017-07-29T04:21:29.440Z,16.86
2017-07-29T04:22:29.481Z,16.88
2017-07-29T04:23:29.501Z,16.86
2017-07-29T04:25:29.554Z,16.81
2017-07-29T04:26:44.170Z,16.83
2017-07-29T04:27:29.600Z,16.79
2017-07-29T04:28:29.611Z,16.88
2017-07-29T04:30:29.654Z,16.83
2017-07-29T04:31:29.691Z,16.88
2017-07-29T04:32:29.702Z,16.83
2017-07-29T04:33:29.737Z,16.83
2017-07-29T04:34:44.360Z,16.81
2017-07-29T04:36:29.828Z,16.86
2017-07-29T04:37:29.822Z,16.89
2017-07-29T04:38:29.869Z,16.89
2017-07-29T04:39:29.881Z,16.94
2017-07-29T04:40:29.911Z,16.91
2017-07-29T04:41:29.670Z,16.91
2017-07-29T04:42:29.650Z,16.91
2017-07-29T04:43:29.984Z,17.01
2017-07-29T04:44:30.022Z,16.98
2017-07-29T04:45:30.027Z,17.18
2017-07-29T04:46:30.050Z,17.15
2017-07-29T04:47:30.077Z,17.22
2017-07-29T04:48:30.112Z,17.21
2017-07-29T04:49:30.129Z,17.22
2017-07-29T04:50:30.139Z,17.28
2017-07-29T04:52:29.877Z,17.22
2017-07-29T04:53:30.216Z,17.31
2017-07-29T04:54:30.244Z,17.23
2017-07-29T04:55:30.276Z,17.3
2017-07-29T04:56:30.287Z,17.28
2017-07-29T04:57:30.329Z,17.25
2017-07-29T04:58:30.333Z,17.31
2017-07-29T04:59:30.086Z,17.33
2017-07-29T05:00:30.382Z,17.43
2017-07-29T05:01:30.417Z,17.49
2017-07-29T05:02:30.443Z,17.58
2017-07-29T05:03:30.467Z,17.54
2017-07-29T05:04:30.478Z,17.66
2017-07-29T05:05:30.517Z,17.77
2017-07-29T05:06:30.543Z,17.82
2017-07-29T05:07:44.852Z,17.78
2017-07-29T05:08:30.592Z,17.78
2017-07-29T05:10:30.633Z,17.82
2017-07-29T05:11:30.672Z,17.78
2017-07-29T05:12:30.691Z,17.77
2017-07-29T05:13:30.700Z,17.78
2017-07-29T05:14:30.754Z,17.72
2017-07-29T05:16:30.798Z,17.72
2017-07-29T05:17:45.398Z,17.68
2017-07-29T05:18:30.829Z,17.77
2017-07-29T05:19:30.849Z,17.64
2017-07-29T05:20:30.871Z,17.79
2017-07-29T05:21:30.899Z,17.75
2017-07-29T05:22:45.524Z,17.82
2017-07-29T05:23:30.948Z,17.93
2017-07-29T05:24:30.985Z,17.89
2017-07-29T05:25:31.001Z,18
2017-07-29T05:26:31.031Z,17.96
2017-07-29T05:27:31.035Z,18.05
2017-07-29T05:28:31.076Z,18.08
2017-07-29T05:29:30.779Z,17.92
2017-07-29T05:30:31.108Z,17.99
2017-07-29T05:31:31.141Z,18.02
2017-07-29T05:32:31.171Z,17.93
2017-07-29T05:33:31.194Z,18.11
2017-07-29T05:34:31.220Z,18.14
2017-07-29T05:35:45.837Z,18.11
2017-07-29T05:36:31.255Z,18.07
2017-07-29T05:37:31.301Z,18.07
2017-07-29T05:38:31.317Z,17.95
2017-07-29T05:39:31.354Z,18.1
2017-07-29T05:40:31.371Z,18.1
2017-07-29T05:41:31.393Z,18.07
2017-07-29T05:42:31.403Z,18.12
2017-07-29T05:43:31.437Z,18.1
2017-07-29T05:44:31.466Z,18.14
2017-07-29T05:45:31.495Z,18.21
2017-07-29T05:46:31.519Z,18.23
2017-07-29T05:48:31.555Z,18.41
2017-07-29T05:49:31.582Z,18.39
2017-07-29T05:50:31.292Z,18.57
2017-07-29T05:51:31.633Z,18.72
2017-07-29T05:52:31.634Z,18.87
2017-07-29T05:53:31.671Z,19.1
2017-07-29T05:54:46.292Z,19.14
2017-07-29T05:56:31.763Z,19.26
2017-07-29T05:57:31.456Z,19.33
2017-07-29T05:59:31.813Z,19.13
2017-07-29T06:00:31.835Z,19.16
2017-07-29T06:01:31.866Z,19.16
2017-07-29T06:02:31.908Z,19.06
2017-07-29T06:03:31.941Z,19.14
2017-07-29T06:04:31.931Z,19.08
2017-07-29T06:05:31.984Z,19.06
2017-07-29T06:06:32.002Z,19
2017-07-29T06:07:32.035Z,18.99
2017-07-29T06:08:32.044Z,19.02
2017-07-29T06:09:32.077Z,19.02
2017-07-29T06:10:46.708Z,19.13
2017-07-29T06:11:32.104Z,19.13
2017-07-29T06:12:32.166Z,19.21
2017-07-29T06:13:32.170Z,19.21
2017-07-29T06:14:32.203Z,19.18
2017-07-29T06:15:32.222Z,19.18
2017-07-29T06:16:32.254Z,19.21
2017-07-29T06:17:32.282Z,19.18
2017-07-29T06:18:46.896Z,19.11
2017-07-29T06:20:46.945Z,19.25
2017-07-29T06:22:46.992Z,19.37
2017-07-29T06:23:32.408Z,19.37
2017-07-29T06:24:32.440Z,19.4
2017-07-29T06:25:32.158Z,19.36
2017-07-29T06:26:47.096Z,19.51
2017-07-29T06:28:32.557Z,19.58
2017-07-29T06:29:32.579Z,19.55
2017-07-29T06:30:32.580Z,19.63
2017-07-29T06:31:32.609Z,19.61
2017-07-29T06:32:32.657Z,19.71
2017-07-29T06:33:32.362Z,19.73
2017-07-29T06:34:32.690Z,19.68
2017-07-29T06:35:32.708Z,19.78
2017-07-29T06:36:32.749Z,19.76
2017-07-29T06:37:32.754Z,19.88
2017-07-29T06:38:32.793Z,20.08
2017-07-29T06:39:32.808Z,20.17
2017-07-29T06:40:32.541Z,20.41
2017-07-29T06:41:32.883Z,20.64
2017-07-29T06:42:47.491Z,20.97
2017-07-29T06:43:32.615Z,21.12
2017-07-29T06:45:32.963Z,21.29
2017-07-29T06:46:32.995Z,21.27
2017-07-29T06:47:33.008Z,21.24
2017-07-29T06:48:33.049Z,21.22
2017-07-29T06:50:33.104Z,21.25
2017-07-29T06:51:33.133Z,21.24
2017-07-29T06:52:33.142Z,21.37
2017-07-29T06:54:33.194Z,21.16
2017-07-29T06:55:33.218Z,21.07
2017-07-29T06:56:33.239Z,20.97
2017-07-29T06:57:47.876Z,20.98
2017-07-29T06:58:33.003Z,20.88
2017-07-29T06:59:33.324Z,20.82
2017-07-29T07:00:33.359Z,20.7
2017-07-29T07:01:33.369Z,20.79
2017-07-29T07:02:33.404Z,20.77
2017-07-29T07:03:33.428Z,20.85
2017-07-29T07:04:33.157Z,20.99
2017-07-29T07:05:33.485Z,21.09
2017-07-29T07:06:33.185Z,21.25
2017-07-29T07:07:48.125Z,21.34
2017-07-29T07:08:33.236Z,21.38
2017-07-29T07:09:33.583Z,21.37
2017-07-29T07:10:33.606Z,21.32
2017-07-29T07:11:33.324Z,21.16
2017-07-29T07:12:33.653Z,21.01
2017-07-29T07:13:48.274Z,20.97
2017-07-29T07:14:33.704Z,20.85
2017-07-29T07:15:33.753Z,20.67
2017-07-29T07:17:48.405Z,20.62
2017-07-29T07:18:33.805Z,20.62
2017-07-29T07:19:33.838Z,20.58
2017-07-29T07:20:33.858Z,20.61
2017-07-29T07:21:33.894Z,20.55
2017-07-29T07:22:33.913Z,20.59
2017-07-29T07:23:48.535Z,20.64
2017-07-29T07:24:33.959Z,20.73
2017-07-29T07:25:33.978Z,20.73
2017-07-29T07:26:33.707Z,20.8
2017-07-29T07:27:33.727Z,20.88
2017-07-29T07:28:34.073Z,20.91
2017-07-29T07:29:48.695Z,20.95
2017-07-29T07:30:33.805Z,20.99
2017-07-29T07:31:34.165Z,21.03
2017-07-29T07:32:34.161Z,21.16
2017-07-29T07:33:34.198Z,21.21
2017-07-29T07:34:34.223Z,21.24
2017-07-29T07:35:34.251Z,21.27
2017-07-29T07:36:34.264Z,21.22
2017-07-29T07:37:33.982Z,21.17
2017-07-29T07:38:34.315Z,21.07
2017-07-29T07:39:34.343Z,21.06
2017-07-29T07:40:34.358Z,21.07
2017-07-29T07:42:34.407Z,20.89
2017-07-29T07:43:34.452Z,20.89
2017-07-29T07:44:34.462Z,20.8
2017-07-29T07:45:49.095Z,20.85
2017-07-29T07:47:34.525Z,20.85
2017-07-29T07:48:34.581Z,20.91
2017-07-29T07:49:34.607Z,20.87
2017-07-29T07:50:34.632Z,20.79
2017-07-29T07:51:34.648Z,20.82
2017-07-29T07:52:34.686Z,20.91
2017-07-29T07:53:34.708Z,20.94
2017-07-29T07:54:34.725Z,21.01
2017-07-29T07:55:49.349Z,21.04
2017-07-29T07:56:34.757Z,21.22
2017-07-29T07:57:34.509Z,21.32
2017-07-29T07:58:34.817Z,21.34
2017-07-29T07:59:34.862Z,21.47
2017-07-29T08:00:34.883Z,21.43
2017-07-29T08:01:49.491Z,21.34
2017-07-29T08:02:34.608Z,21.52
2017-07-29T08:03:34.939Z,21.44
2017-07-29T08:04:34.988Z,21.46
2017-07-29T08:05:34.997Z,21.54
2017-07-29T08:06:35.025Z,21.74
2017-07-29T08:07:35.056Z,21.71
2017-07-29T08:08:35.078Z,21.88
2017-07-29T08:09:35.105Z,22.06
2017-07-29T08:10:35.144Z,22.27
2017-07-29T08:11:35.156Z,22.55
2017-07-29T08:12:49.778Z,22.98
2017-07-29T08:13:34.888Z,23.01
2017-07-29T08:14:35.243Z,23.15
2017-07-29T08:15:35.249Z,23.31
2017-07-29T08:16:35.295Z,23.23
2017-07-29T08:17:49.906Z,23.58
2017-07-29T08:18:35.341Z,23.58
2017-07-29T08:19:35.409Z,23.72
2017-07-29T08:20:49.670Z,23.9
2017-07-29T08:21:35.109Z,23.95
2017-07-29T08:22:35.445Z,23.91
2017-07-29T08:23:35.481Z,24.15
2017-07-29T08:24:35.480Z,24.09
2017-07-29T08:25:35.528Z,24.4
2017-07-29T08:26:50.142Z,24.73
2017-07-29T08:27:35.584Z,24.76
2017-07-29T08:28:50.198Z,25.05
2017-07-29T08:29:35.628Z,25.25
2017-07-29T08:30:35.655Z,25.2
2017-07-29T08:31:35.662Z,25.08
2017-07-29T08:32:50.315Z,25.33
2017-07-29T08:33:35.724Z,25.3
2017-07-29T08:34:35.449Z,25.42
2017-07-29T08:35:36.036Z,25.55
2017-07-29T08:36:35.825Z,25.82
2017-07-29T08:37:35.843Z,26.07
2017-07-29T08:38:35.876Z,26.37
2017-07-29T08:39:35.897Z,26.44
2017-07-29T08:40:35.940Z,26.67
2017-07-29T08:41:35.945Z,27.06
2017-07-29T08:42:50.582Z,27.54
2017-07-29T08:43:35.998Z,27.67
2017-07-29T08:45:50.668Z,27.94
2017-07-29T08:46:36.090Z,27.97
2017-07-29T08:47:36.130Z,28.34
2017-07-29T08:48:36.155Z,28.52
2017-07-29T08:49:36.183Z,28.71
2017-07-29T08:50:36.219Z,29.06
2017-07-29T08:51:36.245Z,29.28
2017-07-29T08:52:36.276Z,29.7
2017-07-29T08:53:36.308Z,30.27
2017-07-29T08:54:36.323Z,30.31
2017-07-29T08:55:36.355Z,30.72
2017-07-29T08:56:36.702Z,30.84
2017-07-29T08:57:36.125Z,31.19
2017-07-29T08:58:36.143Z,31.17
2017-07-29T08:59:36.496Z,31.25
2017-07-29T09:00:36.531Z,30.92
2017-07-29T09:01:36.241Z,31.01
2017-07-29T09:02:36.587Z,31.16
2017-07-29T09:03:36.619Z,31.62
2017-07-29T09:04:51.243Z,31.76
2017-07-29T09:05:36.676Z,31.88
2017-07-29T09:06:36.715Z,31.91
2017-07-29T09:07:36.743Z,31.89
2017-07-29T09:08:36.775Z,32.18
2017-07-29T09:09:36.815Z,32.26
2017-07-29T09:10:36.832Z,32.25
2017-07-29T09:12:36.604Z,31.95
2017-07-29T09:13:36.642Z,31.39
2017-07-29T09:14:36.669Z,31.19
2017-07-29T09:15:37.004Z,30.88
2017-07-29T09:16:37.031Z,31.01
2017-07-29T09:17:37.064Z,30.92
2017-07-29T09:18:37.113Z,31.1
2017-07-29T09:19:37.137Z,31.16
2017-07-29T09:20:51.769Z,31.5
2017-07-29T09:21:37.208Z,31.76
2017-07-29T09:22:36.931Z,31.84
2017-07-29T09:23:37.265Z,31.58
2017-07-29T09:24:36.992Z,31.17
2017-07-29T09:25:37.029Z,30.75
2017-07-29T09:26:37.375Z,30.02
2017-07-29T09:27:37.089Z,29.46
2017-07-29T09:28:37.432Z,28.95
2017-07-29T09:29:37.478Z,28.83
2017-07-29T09:30:37.503Z,28.96
2017-07-29T09:31:36.904Z,28.88
2017-07-29T09:32:37.577Z,28.88
2017-07-29T09:33:37.635Z,28.95
2017-07-29T09:34:37.308Z,28.88
2017-07-29T09:35:37.648Z,28.7
2017-07-29T09:36:52.300Z,28.7
2017-07-29T09:37:37.426Z,28.67
2017-07-29T09:38:37.434Z,28.64
2017-07-29T09:39:37.784Z,28.74
2017-07-29T09:40:37.811Z,29.27
2017-07-29T09:41:37.859Z,29.57
2017-07-29T09:42:37.876Z,30
2017-07-29T09:44:37.950Z,30.24
2017-07-29T09:45:37.996Z,30.05
2017-07-29T09:46:38.015Z,30
2017-07-29T09:47:38.042Z,29.85
2017-07-29T09:48:38.075Z,30.04
2017-07-29T09:49:37.793Z,30.02
2017-07-29T09:50:37.833Z,30.13
2017-07-29T09:51:38.156Z,30.24
2017-07-29T09:52:52.809Z,30.11
2017-07-29T09:53:52.829Z,30.26
2017-07-29T09:54:38.264Z,30.13
2017-07-29T09:55:37.993Z,30
2017-07-29T09:56:38.335Z,29.64
2017-07-29T09:57:38.364Z,29.57
2017-07-29T09:58:38.413Z,29.24
2017-07-29T09:59:38.423Z,29.12
2017-07-29T10:01:38.482Z,29.04
2017-07-29T10:02:38.213Z,29.34
2017-07-29T10:03:38.544Z,29.67
2017-07-29T10:04:38.586Z,29.97
2017-07-29T10:06:38.642Z,29.68
2017-07-29T10:07:53.281Z,29.51
2017-07-29T10:08:38.697Z,29.58
2017-07-29T10:09:38.741Z,29.45
2017-07-29T10:10:38.763Z,29.05
2017-07-29T10:11:38.799Z,29.37
2017-07-29T10:12:38.832Z,29.49
2017-07-29T10:13:38.853Z,29.95
2017-07-29T10:14:38.903Z,30.23
2017-07-29T10:15:53.522Z,30.58
2017-07-29T10:16:38.956Z,30.6
2017-07-29T10:17:38.988Z,30.15
2017-07-29T10:18:39.026Z,30.15
2017-07-29T10:20:39.075Z,30.38
2017-07-29T10:21:39.127Z,30.38
2017-07-29T10:22:38.836Z,30.37
2017-07-29T10:23:39.170Z,30.53
2017-07-29T10:25:38.932Z,29.97
2017-07-29T10:26:39.274Z,30.08
2017-07-29T10:27:38.993Z,30.22
2017-07-29T10:28:39.030Z,30.17
2017-07-29T10:29:39.047Z,30.45
2017-07-29T10:30:39.384Z,30.65
2017-07-29T10:31:39.121Z,30.77
2017-07-29T10:32:39.446Z,30.86
2017-07-29T10:33:39.498Z,30.54
2017-07-29T10:34:39.206Z,30.16
2017-07-29T10:35:39.557Z,30.22
2017-07-29T10:36:38.957Z,30.29
2017-07-29T10:37:39.308Z,30.43
2017-07-29T10:39:54.271Z,30.7
2017-07-29T10:40:54.317Z,30.61
2017-07-29T10:41:39.441Z,30.43
2017-07-29T10:42:39.774Z,30.27
2017-07-29T10:43:39.804Z,30.45
2017-07-29T10:45:54.470Z,30.16
2017-07-29T10:46:39.587Z,29.85
2017-07-29T10:47:39.307Z,29.58
2017-07-29T10:48:54.557Z,29.36
2017-07-29T10:49:39.677Z,29.45
2017-07-29T10:50:54.316Z,29.53
2017-07-29T10:52:54.372Z,29.76
2017-07-29T10:53:39.809Z,29.65
2017-07-29T10:54:39.817Z,29.46
2017-07-29T10:55:54.780Z,29.28
2017-07-29T10:56:39.907Z,29.08
2017-07-29T10:57:40.235Z,29.02
2017-07-29T10:58:39.954Z,28.96
2017-07-29T10:59:40.284Z,29.26
2017-07-29T11:00:40.334Z,29.45
2017-07-29T11:01:40.369Z,29.61
2017-07-29T11:02:40.090Z,30.01
2017-07-29T11:03:40.413Z,30.11
2017-07-29T11:04:40.461Z,30.04
2017-07-29T11:05:40.469Z,30.05
2017-07-29T11:06:40.196Z,29.74
2017-07-29T11:07:40.539Z,29.49
2017-07-29T11:08:40.583Z,29.37
2017-07-29T11:09:40.608Z,29.36
2017-07-29T11:10:40.634Z,29.04
2017-07-29T11:11:55.263Z,28.73
2017-07-29T11:12:40.689Z,28.74
2017-07-29T11:13:40.430Z,28.59
2017-07-29T11:14:40.760Z,28.66
2017-07-29T11:15:40.504Z,28.68
2017-07-29T11:16:40.817Z,28.43
2017-07-29T11:17:40.829Z,28.04
2017-07-29T11:18:40.889Z,28.02
2017-07-29T11:19:40.913Z,28.25
2017-07-29T11:20:55.545Z,28.54
2017-07-29T11:21:40.977Z,28.62
2017-07-29T11:22:41.013Z,28.64
2017-07-29T11:23:41.024Z,28.52
2017-07-29T11:24:40.752Z,28.56
2017-07-29T11:25:41.104Z,28.48
2017-07-29T11:26:40.815Z,28.46
2017-07-29T11:27:55.749Z,28.43
2017-07-29T11:28:41.187Z,28.36
2017-07-29T11:29:55.818Z,27.87
2017-07-29T11:30:41.243Z,27.72
2017-07-29T11:31:41.280Z,27.81
2017-07-29T11:32:41.304Z,27.65
2017-07-29T11:33:41.345Z,28.12
2017-07-29T11:34:41.352Z,28.09
2017-07-29T11:35:41.396Z,28.14
2017-07-29T11:36:41.100Z,28.17
2017-07-29T11:37:56.054Z,28.14
2017-07-29T11:38:41.476Z,28.19
2017-07-29T11:39:41.520Z,28.39
2017-07-29T11:41:41.565Z,28.33
2017-07-29T11:42:56.209Z,28.22
2017-07-29T11:43:41.633Z,28.34
2017-07-29T11:44:41.345Z,28.09
2017-07-29T11:46:41.410Z,28.12
2017-07-29T11:47:41.432Z,28.33
2017-07-29T11:48:41.778Z,28.36
2017-07-29T11:49:41.815Z,28.66
2017-07-29T11:50:41.856Z,28.64
2017-07-29T11:51:41.854Z,28.76
2017-07-29T11:52:41.615Z,28.77
2017-07-29T11:53:41.924Z,28.56
2017-07-29T11:54:41.961Z,28.67
2017-07-29T11:55:41.988Z,28.74
2017-07-29T11:56:42.033Z,28.66
2017-07-29T11:57:42.036Z,28.77
2017-07-29T11:58:42.082Z,28.8
2017-07-29T11:59:42.111Z,28.73
2017-07-29T12:00:42.134Z,28.83
2017-07-29T12:01:42.180Z,28.95
2017-07-29T12:02:42.190Z,29.02
2017-07-29T12:03:42.242Z,28.8
2017-07-29T12:04:42.249Z,28.98
2017-07-29T12:05:42.294Z,28.96
2017-07-29T12:06:42.310Z,29.04
2017-07-29T12:07:42.339Z,29.24
2017-07-29T12:08:42.378Z,29.39
2017-07-29T12:09:42.394Z,29.58
2017-07-29T12:10:42.435Z,29.68
2017-07-29T12:11:57.065Z,29.49
2017-07-29T12:12:42.485Z,29.53
2017-07-29T12:14:57.159Z,29.68
2017-07-29T12:15:42.578Z,29.68
2017-07-29T12:16:42.613Z,29.53
2017-07-29T12:17:42.642Z,29.46
2017-07-29T12:18:42.678Z,29.39
2017-07-29T12:19:42.690Z,29.34
2017-07-29T12:20:42.752Z,29.43
2017-07-29T12:21:42.768Z,29.37
2017-07-29T12:22:42.787Z,29.18
2017-07-29T12:23:42.829Z,29.12
2017-07-29T12:24:42.864Z,29.05
2017-07-29T12:25:42.891Z,28.95
2017-07-29T12:26:42.917Z,28.88
2017-07-29T12:27:42.946Z,28.96
2017-07-29T12:28:42.988Z,28.83
2017-07-29T12:30:57.643Z,29.04
2017-07-29T12:31:43.085Z,29.04
2017-07-29T12:33:43.130Z,29.11
2017-07-29T12:34:43.140Z,28.74
2017-07-29T12:35:42.879Z,28.68
2017-07-29T12:36:57.822Z,28.67
2017-07-29T12:37:42.946Z,28.74
2017-07-29T12:38:43.271Z,28.71
2017-07-29T12:39:42.993Z,28.54
2017-07-29T12:40:43.345Z,28.61
2017-07-29T12:41:43.388Z,28.67
2017-07-29T12:43:43.431Z,28.64
2017-07-29T12:44:43.458Z,28.78
2017-07-29T12:45:43.501Z,28.86
2017-07-29T12:46:58.110Z,28.81
2017-07-29T12:47:43.543Z,28.81
2017-07-29T12:48:43.602Z,28.8
2017-07-29T12:49:43.604Z,28.88
2017-07-29T12:50:43.630Z,28.9
2017-07-29T12:51:43.338Z,29.02
2017-07-29T12:52:43.722Z,28.83
2017-07-29T12:53:43.112Z,28.77
2017-07-29T12:54:43.765Z,28.76
2017-07-29T12:55:43.771Z,28.77
2017-07-29T12:56:43.815Z,28.86
2017-07-29T12:58:44.167Z,28.74
2017-07-29T12:59:43.898Z,28.7
2017-07-29T13:00:43.629Z,28.71
2017-07-29T13:01:43.971Z,28.55
2017-07-29T13:02:58.585Z,28.62
2017-07-29T13:03:43.715Z,28.71
2017-07-29T13:04:43.746Z,28.7
2017-07-29T13:05:44.077Z,28.55
2017-07-29T13:06:44.108Z,28.54
2017-07-29T13:07:44.135Z,28.68
2017-07-29T13:08:44.159Z,28.54
2017-07-29T13:09:44.192Z,28.52
2017-07-29T13:10:44.234Z,28.66
2017-07-29T13:11:44.268Z,28.62
2017-07-29T13:12:44.281Z,28.7
2017-07-29T13:13:44.320Z,28.73
2017-07-29T13:14:44.345Z,28.73
2017-07-29T13:15:44.385Z,28.76
2017-07-29T13:16:44.398Z,28.76
2017-07-29T13:17:59.039Z,28.71
2017-07-29T13:18:44.458Z,28.83
2017-07-29T13:19:44.493Z,28.98
2017-07-29T13:20:44.513Z,29.08
2017-07-29T13:21:44.550Z,29
2017-07-29T13:22:44.580Z,28.92
2017-07-29T13:23:44.617Z,29.11
2017-07-29T13:24:44.653Z,29.43
2017-07-29T13:25:44.655Z,29.48
2017-07-29T13:26:44.692Z,29.6
2017-07-29T13:28:59.361Z,29.86
2017-07-29T13:29:44.789Z,29.83
2017-07-29T13:30:59.415Z,29.8
2017-07-29T13:31:44.832Z,29.57
2017-07-29T13:32:44.877Z,29.45
2017-07-29T13:33:44.906Z,29.42
2017-07-29T13:34:44.947Z,29.45
2017-07-29T13:35:44.965Z,29.37
2017-07-29T13:36:45.009Z,29.27
2017-07-29T13:37:44.711Z,29.24
2017-07-29T13:38:45.049Z,28.96
2017-07-29T13:39:45.081Z,29.16
2017-07-29T13:40:45.124Z,29.21
2017-07-29T13:41:45.154Z,29.06
2017-07-29T13:42:45.171Z,28.88
2017-07-29T13:43:45.207Z,28.78
2017-07-29T13:44:45.525Z,28.74
2017-07-29T13:45:59.864Z,28.92